sensor_id;sensor_type;location;lat;lon;timestamp;P1;durP1;ratioP1;P2;durP2;ratioP2
73879;SDS011;62211;42.986;23.256;2023-01-13T00:01:11;12.32;;;8.75;;
73879;SDS011;62211;42.986;23.256;2023-01-13T00:03:37;18.88;;;8.88;;
73879;SDS011;62211;42.986;23.256;2023-01-13T00:06:03;22.20;;;9.50;;
73879;SDS011;62211;42.986;23.256;2023-01-13T00:08:29;19.95;;;10.45;;
73879;SDS011;62211;42.986;23.256;2023-01-13T00:10:55;16.70;;;10.27;;
73879;SDS011;62211;42.986;23.256;2023-01-13T00:13:21;23.40;;;10.13;;
73879;SDS011;62211;42.986;23.256;2023-01-13T00:16:00;19.85;;;10.20;;
73879;SDS011;62211;42.986;23.256;2023-01-13T00:18:28;16.05;;;9.32;;
73879;SDS011;62211;42.986;23.256;2023-01-13T00:21:01;22.90;;;11.40;;
73879;SDS011;62211;42.986;23.256;2023-01-13T00:23:27;22.65;;;9.75;;
73879;SDS011;62211;42.986;23.256;2023-01-13T00:25:57;19.52;;;12.00;;
73879;SDS011;62211;42.986;23.256;2023-01-13T00:28:23;22.23;;;10.40;;
73879;SDS011;62211;42.986;23.256;2023-01-13T00:30:49;19.33;;;10.23;;
73879;SDS011;62211;42.986;23.256;2023-01-13T00:33:14;17.00;;;8.82;;
73879;SDS011;62211;42.986;23.256;2023-01-13T00:35:40;11.25;;;7.78;;
73879;SDS011;62211;42.986;23.256;2023-01-13T00:38:05;12.70;;;6.88;;
73879;SDS011;62211;42.986;23.256;2023-01-13T00:40:30;12.98;;;7.25;;
73879;SDS011;62211;42.986;23.256;2023-01-13T00:42:56;6.65;;;4.93;;
73879;SDS011;62211;42.986;23.256;2023-01-13T00:45:40;8.32;;;4.80;;
73879;SDS011;62211;42.986;23.256;2023-01-13T00:48:05;10.52;;;5.30;;
73879;SDS011;62211;42.986;23.256;2023-01-13T00:50:31;16.00;;;7.75;;
73879;SDS011;62211;42.986;23.256;2023-01-13T00:53:00;14.02;;;7.65;;
73879;SDS011;62211;42.986;23.256;2023-01-13T00:55:28;13.88;;;6.75;;
73879;SDS011;62211;42.986;23.256;2023-01-13T00:57:54;12.73;;;6.15;;
73879;SDS011;62211;42.986;23.256;2023-01-13T01:00:20;12.27;;;7.40;;
73879;SDS011;62211;42.986;23.256;2023-01-13T01:02:45;14.02;;;7.32;;
73879;SDS011;62211;42.986;23.256;2023-01-13T01:05:11;11.57;;;6.57;;
73879;SDS011;62211;42.986;23.256;2023-01-13T01:07:36;12.90;;;6.38;;
73879;SDS011;62211;42.986;23.256;2023-01-13T01:10:02;11.18;;;7.00;;
73879;SDS011;62211;42.986;23.256;2023-01-13T01:12:27;14.77;;;7.65;;
73879;SDS011;62211;42.986;23.256;2023-01-13T01:14:53;13.80;;;7.55;;
73879;SDS011;62211;42.986;23.256;2023-01-13T01:17:18;17.05;;;7.07;;
73879;SDS011;62211;42.986;23.256;2023-01-13T01:19:44;16.00;;;7.95;;
73879;SDS011;62211;42.986;23.256;2023-01-13T01:22:09;22.60;;;8.40;;
73879;SDS011;62211;42.986;23.256;2023-01-13T01:24:34;16.65;;;8.07;;
73879;SDS011;62211;42.986;23.256;2023-01-13T01:27:00;13.38;;;7.32;;
73879;SDS011;62211;42.986;23.256;2023-01-13T01:29:25;15.75;;;7.72;;
73879;SDS011;62211;42.986;23.256;2023-01-13T01:31:51;16.20;;;7.70;;
73879;SDS011;62211;42.986;23.256;2023-01-13T01:34:16;13.93;;;8.05;;
73879;SDS011;62211;42.986;23.256;2023-01-13T01:36:41;13.80;;;7.35;;
73879;SDS011;62211;42.986;23.256;2023-01-13T01:39:08;14.45;;;7.32;;
73879;SDS011;62211;42.986;23.256;2023-01-13T01:41:34;16.58;;;8.60;;
73879;SDS011;62211;42.986;23.256;2023-01-13T01:47:03;19.48;;;9.10;;
73879;SDS011;62211;42.986;23.256;2023-01-13T01:49:30;14.32;;;7.95;;
73879;SDS011;62211;42.986;23.256;2023-01-13T01:52:01;14.45;;;7.57;;
73879;SDS011;62211;42.986;23.256;2023-01-13T01:54:55;12.93;;;8.48;;
73879;SDS011;62211;42.986;23.256;2023-01-13T01:57:26;12.45;;;7.45;;
73879;SDS011;62211;42.986;23.256;2023-01-13T02:00:01;13.90;;;8.05;;
73879;SDS011;62211;42.986;23.256;2023-01-13T02:02:27;18.15;;;8.45;;
73879;SDS011;62211;42.986;23.256;2023-01-13T02:04:53;14.98;;;7.90;;
73879;SDS011;62211;42.986;23.256;2023-01-13T02:07:21;12.50;;;7.40;;
73879;SDS011;62211;42.986;23.256;2023-01-13T02:09:49;13.27;;;7.65;;
73879;SDS011;62211;42.986;23.256;2023-01-13T02:12:16;15.48;;;8.07;;
73879;SDS011;62211;42.986;23.256;2023-01-13T02:14:53;13.55;;;8.20;;
73879;SDS011;62211;42.986;23.256;2023-01-13T02:20:13;14.80;;;7.40;;
73879;SDS011;62211;42.986;23.256;2023-01-13T02:22:45;19.27;;;7.40;;
73879;SDS011;62211;42.986;23.256;2023-01-13T02:25:30;13.27;;;7.53;;
73879;SDS011;62211;42.986;23.256;2023-01-13T02:30:51;12.07;;;6.38;;
73879;SDS011;62211;42.986;23.256;2023-01-13T02:33:46;7.20;;;4.07;;
73879;SDS011;62211;42.986;23.256;2023-01-13T02:36:23;7.43;;;4.63;;
73879;SDS011;62211;42.986;23.256;2023-01-13T02:41:26;9.43;;;5.72;;
73879;SDS011;62211;42.986;23.256;2023-01-13T02:44:12;12.75;;;5.68;;
73879;SDS011;62211;42.986;23.256;2023-01-13T02:49:48;7.85;;;3.70;;
73879;SDS011;62211;42.986;23.256;2023-01-13T02:52:18;7.70;;;4.63;;
73879;SDS011;62211;42.986;23.256;2023-01-13T02:54:57;11.75;;;5.25;;
73879;SDS011;62211;42.986;23.256;2023-01-13T02:57:27;8.45;;;5.05;;
73879;SDS011;62211;42.986;23.256;2023-01-13T02:59:54;8.20;;;4.95;;
73879;SDS011;62211;42.986;23.256;2023-01-13T03:02:20;11.77;;;5.97;;
73879;SDS011;62211;42.986;23.256;2023-01-13T03:04:50;6.32;;;4.57;;
73879;SDS011;62211;42.986;23.256;2023-01-13T03:07:25;6.70;;;4.25;;
73879;SDS011;62211;42.986;23.256;2023-01-13T03:10:02;7.43;;;5.57;;
73879;SDS011;62211;42.986;23.256;2023-01-13T03:15:53;10.80;;;5.57;;
73879;SDS011;62211;42.986;23.256;2023-01-13T03:18:45;14.60;;;7.10;;
73879;SDS011;62211;42.986;23.256;2023-01-13T03:21:22;20.65;;;10.10;;
73879;SDS011;62211;42.986;23.256;2023-01-13T03:23:59;21.33;;;9.93;;
73879;SDS011;62211;42.986;23.256;2023-01-13T03:32:09;15.35;;;8.55;;
73879;SDS011;62211;42.986;23.256;2023-01-13T03:34:45;22.42;;;11.25;;
73879;SDS011;62211;42.986;23.256;2023-01-13T03:37:13;15.02;;;8.02;;
73879;SDS011;62211;42.986;23.256;2023-01-13T03:39:42;15.70;;;8.27;;
73879;SDS011;62211;42.986;23.256;2023-01-13T03:42:13;16.17;;;8.45;;
73879;SDS011;62211;42.986;23.256;2023-01-13T03:50:07;19.48;;;8.43;;
73879;SDS011;62211;42.986;23.256;2023-01-13T03:52:36;21.27;;;9.50;;
73879;SDS011;62211;42.986;23.256;2023-01-13T03:55:14;19.45;;;10.25;;
73879;SDS011;62211;42.986;23.256;2023-01-13T03:57:47;17.90;;;7.30;;
73879;SDS011;62211;42.986;23.256;2023-01-13T04:00:17;12.27;;;7.57;;
73879;SDS011;62211;42.986;23.256;2023-01-13T04:02:46;13.50;;;8.00;;
73879;SDS011;62211;42.986;23.256;2023-01-13T04:05:12;15.18;;;7.75;;
73879;SDS011;62211;42.986;23.256;2023-01-13T04:10:13;15.18;;;8.43;;
73879;SDS011;62211;42.986;23.256;2023-01-13T04:15:32;13.40;;;6.93;;
73879;SDS011;62211;42.986;23.256;2023-01-13T04:20:39;12.48;;;7.28;;
73879;SDS011;62211;42.986;23.256;2023-01-13T04:23:05;12.20;;;5.95;;
73879;SDS011;62211;42.986;23.256;2023-01-13T04:25:31;12.48;;;7.28;;
73879;SDS011;62211;42.986;23.256;2023-01-13T04:27:57;10.38;;;6.30;;
73879;SDS011;62211;42.986;23.256;2023-01-13T04:30:22;11.57;;;6.10;;
73879;SDS011;62211;42.986;23.256;2023-01-13T04:32:48;11.35;;;6.40;;
73879;SDS011;62211;42.986;23.256;2023-01-13T04:35:13;26.45;;;12.07;;
73879;SDS011;62211;42.986;23.256;2023-01-13T04:37:38;24.15;;;12.82;;
73879;SDS011;62211;42.986;23.256;2023-01-13T04:40:04;19.30;;;11.07;;
73879;SDS011;62211;42.986;23.256;2023-01-13T04:42:30;20.05;;;9.70;;
73879;SDS011;62211;42.986;23.256;2023-01-13T04:44:55;19.55;;;9.40;;
73879;SDS011;62211;42.986;23.256;2023-01-13T04:47:21;20.40;;;10.27;;
73879;SDS011;62211;42.986;23.256;2023-01-13T04:49:46;22.13;;;8.80;;
73879;SDS011;62211;42.986;23.256;2023-01-13T04:52:12;19.40;;;9.27;;
73879;SDS011;62211;42.986;23.256;2023-01-13T04:54:37;18.08;;;9.88;;
73879;SDS011;62211;42.986;23.256;2023-01-13T04:57:02;13.65;;;8.40;;
73879;SDS011;62211;42.986;23.256;2023-01-13T04:59:28;14.02;;;8.25;;
73879;SDS011;62211;42.986;23.256;2023-01-13T05:01:53;15.82;;;7.25;;
73879;SDS011;62211;42.986;23.256;2023-01-13T05:04:19;13.93;;;6.35;;
73879;SDS011;62211;42.986;23.256;2023-01-13T05:06:44;12.10;;;7.28;;
73879;SDS011;62211;42.986;23.256;2023-01-13T05:09:10;13.60;;;7.82;;
73879;SDS011;62211;42.986;23.256;2023-01-13T05:11:37;15.57;;;8.35;;
73879;SDS011;62211;42.986;23.256;2023-01-13T05:14:21;16.40;;;9.05;;
73879;SDS011;62211;42.986;23.256;2023-01-13T05:17:06;17.00;;;7.68;;
73879;SDS011;62211;42.986;23.256;2023-01-13T05:19:34;12.02;;;6.68;;
73879;SDS011;62211;42.986;23.256;2023-01-13T05:22:00;12.95;;;6.55;;
73879;SDS011;62211;42.986;23.256;2023-01-13T05:24:45;13.82;;;5.97;;
73879;SDS011;62211;42.986;23.256;2023-01-13T05:27:29;10.57;;;5.60;;
73879;SDS011;62211;42.986;23.256;2023-01-13T05:29:55;11.30;;;5.50;;
73879;SDS011;62211;42.986;23.256;2023-01-13T05:32:21;8.35;;;5.13;;
73879;SDS011;62211;42.986;23.256;2023-01-13T05:34:47;7.40;;;6.25;;
73879;SDS011;62211;42.986;23.256;2023-01-13T05:37:13;11.60;;;6.80;;
73879;SDS011;62211;42.986;23.256;2023-01-13T05:39:38;10.45;;;5.65;;
73879;SDS011;62211;42.986;23.256;2023-01-13T05:42:23;18.45;;;7.53;;
73879;SDS011;62211;42.986;23.256;2023-01-13T05:45:07;15.60;;;7.28;;
73879;SDS011;62211;42.986;23.256;2023-01-13T05:47:33;13.43;;;7.47;;
73879;SDS011;62211;42.986;23.256;2023-01-13T05:49:58;13.02;;;6.72;;
73879;SDS011;62211;42.986;23.256;2023-01-13T05:52:23;18.05;;;9.05;;
73879;SDS011;62211;42.986;23.256;2023-01-13T05:54:49;22.08;;;10.27;;
73879;SDS011;62211;42.986;23.256;2023-01-13T05:57:15;20.08;;;9.65;;
73879;SDS011;62211;42.986;23.256;2023-01-13T05:59:40;17.73;;;9.85;;
73879;SDS011;62211;42.986;23.256;2023-01-13T06:02:06;20.15;;;9.98;;
73879;SDS011;62211;42.986;23.256;2023-01-13T06:04:31;21.30;;;10.73;;
73879;SDS011;62211;42.986;23.256;2023-01-13T06:06:56;14.13;;;6.60;;
73879;SDS011;62211;42.986;23.256;2023-01-13T06:09:22;8.07;;;5.50;;
73879;SDS011;62211;42.986;23.256;2023-01-13T06:11:47;10.10;;;5.40;;
73879;SDS011;62211;42.986;23.256;2023-01-13T06:14:13;13.02;;;6.72;;
73879;SDS011;62211;42.986;23.256;2023-01-13T06:16:38;12.93;;;6.30;;
73879;SDS011;62211;42.986;23.256;2023-01-13T06:19:04;9.82;;;6.35;;
73879;SDS011;62211;42.986;23.256;2023-01-13T06:21:36;11.93;;;6.15;;
73879;SDS011;62211;42.986;23.256;2023-01-13T06:24:01;10.88;;;6.18;;
73879;SDS011;62211;42.986;23.256;2023-01-13T06:26:28;10.80;;;5.75;;
73879;SDS011;62211;42.986;23.256;2023-01-13T06:28:54;11.02;;;6.55;;
73879;SDS011;62211;42.986;23.256;2023-01-13T06:31:20;15.65;;;8.23;;
73879;SDS011;62211;42.986;23.256;2023-01-13T06:33:49;12.20;;;6.32;;
73879;SDS011;62211;42.986;23.256;2023-01-13T06:36:18;11.82;;;8.02;;
73879;SDS011;62211;42.986;23.256;2023-01-13T06:38:49;14.63;;;8.38;;
73879;SDS011;62211;42.986;23.256;2023-01-13T06:41:18;17.38;;;8.82;;
73879;SDS011;62211;42.986;23.256;2023-01-13T06:44:07;16.50;;;8.73;;
73879;SDS011;62211;42.986;23.256;2023-01-13T06:46:32;21.88;;;9.80;;
73879;SDS011;62211;42.986;23.256;2023-01-13T06:48:59;15.05;;;8.13;;
73879;SDS011;62211;42.986;23.256;2023-01-13T06:51:24;18.88;;;10.48;;
73879;SDS011;62211;42.986;23.256;2023-01-13T06:53:50;26.38;;;13.63;;
73879;SDS011;62211;42.986;23.256;2023-01-13T06:56:15;19.40;;;11.82;;
73879;SDS011;62211;42.986;23.256;2023-01-13T06:58:40;21.05;;;10.80;;
73879;SDS011;62211;42.986;23.256;2023-01-13T07:01:06;22.08;;;10.13;;
73879;SDS011;62211;42.986;23.256;2023-01-13T07:03:31;13.50;;;9.25;;
73879;SDS011;62211;42.986;23.256;2023-01-13T07:05:56;99.40;;;42.22;;
73879;SDS011;62211;42.986;23.256;2023-01-13T07:08:23;66.40;;;27.70;;
73879;SDS011;62211;42.986;23.256;2023-01-13T07:10:48;35.72;;;18.10;;
73879;SDS011;62211;42.986;23.256;2023-01-13T07:13:15;29.25;;;15.10;;
73879;SDS011;62211;42.986;23.256;2023-01-13T07:16:00;21.23;;;10.90;;
73879;SDS011;62211;42.986;23.256;2023-01-13T07:18:27;18.88;;;10.32;;
73879;SDS011;62211;42.986;23.256;2023-01-13T07:20:56;13.40;;;8.35;;
73879;SDS011;62211;42.986;23.256;2023-01-13T07:23:33;22.30;;;9.10;;
73879;SDS011;62211;42.986;23.256;2023-01-13T07:26:02;16.40;;;9.82;;
73879;SDS011;62211;42.986;23.256;2023-01-13T07:28:28;16.75;;;8.80;;
73879;SDS011;62211;42.986;23.256;2023-01-13T07:30:54;16.42;;;9.05;;
73879;SDS011;62211;42.986;23.256;2023-01-13T07:33:19;12.88;;;8.27;;
73879;SDS011;62211;42.986;23.256;2023-01-13T07:35:45;13.77;;;7.45;;
73879;SDS011;62211;42.986;23.256;2023-01-13T07:38:11;16.73;;;8.13;;
73879;SDS011;62211;42.986;23.256;2023-01-13T07:40:38;18.92;;;7.18;;
73879;SDS011;62211;42.986;23.256;2023-01-13T07:43:04;12.68;;;5.85;;
73879;SDS011;62211;42.986;23.256;2023-01-13T07:45:48;14.02;;;6.10;;
73879;SDS011;62211;42.986;23.256;2023-01-13T07:48:13;16.58;;;6.90;;
73879;SDS011;62211;42.986;23.256;2023-01-13T07:50:39;12.05;;;7.78;;
73879;SDS011;62211;42.986;23.256;2023-01-13T07:53:04;12.85;;;7.32;;
73879;SDS011;62211;42.986;23.256;2023-01-13T07:55:29;11.10;;;6.65;;
73879;SDS011;62211;42.986;23.256;2023-01-13T07:57:55;13.07;;;7.40;;
73879;SDS011;62211;42.986;23.256;2023-01-13T08:00:20;16.85;;;8.50;;
73879;SDS011;62211;42.986;23.256;2023-01-13T08:02:46;16.23;;;7.47;;
73879;SDS011;62211;42.986;23.256;2023-01-13T08:05:11;9.95;;;6.63;;
73879;SDS011;62211;42.986;23.256;2023-01-13T08:07:37;14.30;;;7.40;;
73879;SDS011;62211;42.986;23.256;2023-01-13T08:10:04;13.82;;;6.97;;
73879;SDS011;62211;42.986;23.256;2023-01-13T08:12:30;12.02;;;6.80;;
73879;SDS011;62211;42.986;23.256;2023-01-13T08:17:39;7.53;;;5.10;;
73879;SDS011;62211;42.986;23.256;2023-01-13T08:20:05;8.75;;;4.55;;
73879;SDS011;62211;42.986;23.256;2023-01-13T08:22:31;7.60;;;4.68;;
73879;SDS011;62211;42.986;23.256;2023-01-13T08:24:57;5.93;;;4.53;;
73879;SDS011;62211;42.986;23.256;2023-01-13T08:27:23;6.85;;;4.60;;
73879;SDS011;62211;42.986;23.256;2023-01-13T08:29:49;7.03;;;5.22;;
73879;SDS011;62211;42.986;23.256;2023-01-13T08:32:14;10.15;;;5.55;;
73879;SDS011;62211;42.986;23.256;2023-01-13T08:34:39;5.47;;;4.70;;
73879;SDS011;62211;42.986;23.256;2023-01-13T08:37:05;8.77;;;5.78;;
73879;SDS011;62211;42.986;23.256;2023-01-13T08:39:30;7.00;;;4.47;;
73879;SDS011;62211;42.986;23.256;2023-01-13T08:41:56;7.72;;;5.10;;
73879;SDS011;62211;42.986;23.256;2023-01-13T08:44:23;6.68;;;3.92;;
73879;SDS011;62211;42.986;23.256;2023-01-13T08:46:50;6.50;;;4.22;;
73879;SDS011;62211;42.986;23.256;2023-01-13T08:49:15;9.50;;;5.68;;
73879;SDS011;62211;42.986;23.256;2023-01-13T08:51:41;6.82;;;4.40;;
73879;SDS011;62211;42.986;23.256;2023-01-13T08:54:07;11.60;;;6.35;;
73879;SDS011;62211;42.986;23.256;2023-01-13T08:56:32;3.92;;;2.78;;
73879;SDS011;62211;42.986;23.256;2023-01-13T08:58:58;7.18;;;3.20;;
73879;SDS011;62211;42.986;23.256;2023-01-13T09:01:23;3.55;;;2.97;;
73879;SDS011;62211;42.986;23.256;2023-01-13T09:03:49;2.33;;;2.05;;
73879;SDS011;62211;42.986;23.256;2023-01-13T09:06:14;3.05;;;2.20;;
73879;SDS011;62211;42.986;23.256;2023-01-13T09:08:40;4.35;;;2.90;;
73879;SDS011;62211;42.986;23.256;2023-01-13T09:11:05;3.00;;;2.40;;
73879;SDS011;62211;42.986;23.256;2023-01-13T09:13:51;3.50;;;2.35;;
73879;SDS011;62211;42.986;23.256;2023-01-13T09:16:16;5.45;;;2.25;;
73879;SDS011;62211;42.986;23.256;2023-01-13T09:18:43;3.75;;;2.00;;
73879;SDS011;62211;42.986;23.256;2023-01-13T09:21:10;4.20;;;2.75;;
73879;SDS011;62211;42.986;23.256;2023-01-13T09:23:35;3.17;;;2.35;;
73879;SDS011;62211;42.986;23.256;2023-01-13T09:26:01;2.33;;;2.13;;
73879;SDS011;62211;42.986;23.256;2023-01-13T09:28:27;3.85;;;2.30;;
73879;SDS011;62211;42.986;23.256;2023-01-13T09:30:53;3.72;;;2.67;;
73879;SDS011;62211;42.986;23.256;2023-01-13T09:33:18;2.20;;;2.08;;
73879;SDS011;62211;42.986;23.256;2023-01-13T09:36:02;7.28;;;3.10;;
73879;SDS011;62211;42.986;23.256;2023-01-13T09:38:27;4.75;;;2.80;;
73879;SDS011;62211;42.986;23.256;2023-01-13T09:40:53;5.05;;;2.70;;
73879;SDS011;62211;42.986;23.256;2023-01-13T09:43:24;2.42;;;2.05;;
73879;SDS011;62211;42.986;23.256;2023-01-13T09:46:17;4.13;;;2.22;;
73879;SDS011;62211;42.986;23.256;2023-01-13T09:49:06;4.70;;;3.47;;
73879;SDS011;62211;42.986;23.256;2023-01-13T09:54:05;3.88;;;2.53;;
73879;SDS011;62211;42.986;23.256;2023-01-13T09:56:45;5.47;;;3.03;;
73879;SDS011;62211;42.986;23.256;2023-01-13T09:59:11;5.68;;;3.35;;
73879;SDS011;62211;42.986;23.256;2023-01-13T10:04:12;4.25;;;2.88;;
73879;SDS011;62211;42.986;23.256;2023-01-13T10:06:39;4.25;;;2.90;;
73879;SDS011;62211;42.986;23.256;2023-01-13T10:09:13;3.60;;;2.95;;
73879;SDS011;62211;42.986;23.256;2023-01-13T10:11:43;3.30;;;2.38;;
73879;SDS011;62211;42.986;23.256;2023-01-13T10:14:41;4.75;;;1.83;;
73879;SDS011;62211;42.986;23.256;2023-01-13T10:19:49;1.92;;;1.75;;
73879;SDS011;62211;42.986;23.256;2023-01-13T10:27:53;4.65;;;3.33;;
73879;SDS011;62211;42.986;23.256;2023-01-13T10:30:27;3.90;;;3.47;;
73879;SDS011;62211;42.986;23.256;2023-01-13T10:32:59;3.97;;;3.05;;
73879;SDS011;62211;42.986;23.256;2023-01-13T10:41:00;2.80;;;2.13;;
73879;SDS011;62211;42.986;23.256;2023-01-13T10:43:28;4.15;;;3.10;;
73879;SDS011;62211;42.986;23.256;2023-01-13T10:46:04;3.00;;;2.55;;
73879;SDS011;62211;42.986;23.256;2023-01-13T10:48:53;3.42;;;2.47;;
73879;SDS011;62211;42.986;23.256;2023-01-13T10:56:37;6.07;;;3.40;;
73879;SDS011;62211;42.986;23.256;2023-01-13T10:59:08;2.13;;;1.90;;
73879;SDS011;62211;42.986;23.256;2023-01-13T11:01:36;5.50;;;2.65;;
73879;SDS011;62211;42.986;23.256;2023-01-13T11:04:08;5.25;;;2.97;;
73879;SDS011;62211;42.986;23.256;2023-01-13T11:06:48;4.97;;;3.03;;
73879;SDS011;62211;42.986;23.256;2023-01-13T11:09:17;12.65;;;3.35;;
73879;SDS011;62211;42.986;23.256;2023-01-13T11:11:44;6.20;;;3.28;;
73879;SDS011;62211;42.986;23.256;2023-01-13T11:14:21;5.82;;;3.63;;
73879;SDS011;62211;42.986;23.256;2023-01-13T11:16:58;3.53;;;3.22;;
73879;SDS011;62211;42.986;23.256;2023-01-13T11:19:26;5.05;;;2.78;;
73879;SDS011;62211;42.986;23.256;2023-01-13T11:32:19;8.32;;;5.07;;
73879;SDS011;62211;42.986;23.256;2023-01-13T11:34:49;8.20;;;4.68;;
73879;SDS011;62211;42.986;23.256;2023-01-13T11:37:25;4.90;;;3.45;;
73879;SDS011;62211;42.986;23.256;2023-01-13T11:45:29;26.35;;;13.75;;
73879;SDS011;62211;42.986;23.256;2023-01-13T11:48:04;16.98;;;9.57;;
73879;SDS011;62211;42.986;23.256;2023-01-13T12:03:35;36.50;;;13.77;;
73879;SDS011;62211;42.986;23.256;2023-01-13T12:06:10;34.97;;;18.23;;
73879;SDS011;62211;42.986;23.256;2023-01-13T12:11:30;19.65;;;8.60;;
73879;SDS011;62211;42.986;23.256;2023-01-13T12:14:19;9.50;;;4.75;;
73879;SDS011;62211;42.986;23.256;2023-01-13T12:16:54;6.00;;;3.10;;
73879;SDS011;62211;42.986;23.256;2023-01-13T12:19:26;3.90;;;3.03;;
73879;SDS011;62211;42.986;23.256;2023-01-13T12:22:02;3.90;;;2.40;;
73879;SDS011;62211;42.986;23.256;2023-01-13T12:27:01;19.60;;;10.18;;
73879;SDS011;62211;42.986;23.256;2023-01-13T12:29:32;13.73;;;6.38;;
73879;SDS011;62211;42.986;23.256;2023-01-13T12:32:00;6.03;;;3.60;;
73879;SDS011;62211;42.986;23.256;2023-01-13T12:39:56;5.25;;;3.20;;
73879;SDS011;62211;42.986;23.256;2023-01-13T12:42:57;3.33;;;2.63;;
73879;SDS011;62211;42.986;23.256;2023-01-13T12:45:50;9.38;;;4.82;;
73879;SDS011;62211;42.986;23.256;2023-01-13T12:51:28;7.90;;;4.00;;
73879;SDS011;62211;42.986;23.256;2023-01-13T12:53:56;7.32;;;4.35;;
73879;SDS011;62211;42.986;23.256;2023-01-13T12:59:29;10.30;;;4.60;;
73879;SDS011;62211;42.986;23.256;2023-01-13T13:02:34;11.23;;;6.40;;
73879;SDS011;62211;42.986;23.256;2023-01-13T13:04:49;11.35;;;5.35;;
73879;SDS011;62211;42.986;23.256;2023-01-13T13:09:58;8.57;;;5.45;;
73879;SDS011;62211;42.986;23.256;2023-01-13T13:15:28;14.40;;;7.53;;
73879;SDS011;62211;42.986;23.256;2023-01-13T13:31:54;7.35;;;4.35;;
73879;SDS011;62211;42.986;23.256;2023-01-13T13:34:46;9.77;;;4.47;;
73879;SDS011;62211;42.986;23.256;2023-01-13T13:40:42;8.48;;;4.90;;
73879;SDS011;62211;42.986;23.256;2023-01-13T13:43:43;9.00;;;5.50;;
73879;SDS011;62211;42.986;23.256;2023-01-13T13:46:29;9.23;;;5.82;;
73879;SDS011;62211;42.986;23.256;2023-01-13T13:49:20;7.72;;;4.95;;
73879;SDS011;62211;42.986;23.256;2023-01-13T13:54:36;11.95;;;6.10;;
73879;SDS011;62211;42.986;23.256;2023-01-13T13:57:03;8.35;;;5.75;;
73879;SDS011;62211;42.986;23.256;2023-01-13T13:59:29;10.48;;;5.18;;
73879;SDS011;62211;42.986;23.256;2023-01-13T14:01:58;10.70;;;6.10;;
73879;SDS011;62211;42.986;23.256;2023-01-13T14:04:35;9.57;;;6.38;;
73879;SDS011;62211;42.986;23.256;2023-01-13T14:07:01;20.58;;;10.63;;
73879;SDS011;62211;42.986;23.256;2023-01-13T14:09:39;10.18;;;5.97;;
73879;SDS011;62211;42.986;23.256;2023-01-13T14:12:13;49.35;;;20.73;;
73879;SDS011;62211;42.986;23.256;2023-01-13T14:14:44;14.27;;;8.82;;
73879;SDS011;62211;42.986;23.256;2023-01-13T14:19:52;18.60;;;9.52;;
73879;SDS011;62211;42.986;23.256;2023-01-13T14:22:23;17.90;;;10.38;;
73879;SDS011;62211;42.986;23.256;2023-01-13T14:24:48;15.95;;;9.90;;
73879;SDS011;62211;42.986;23.256;2023-01-13T14:27:20;21.38;;;10.93;;
73879;SDS011;62211;42.986;23.256;2023-01-13T14:29:46;17.45;;;11.07;;
73879;SDS011;62211;42.986;23.256;2023-01-13T14:32:13;18.63;;;10.15;;
73879;SDS011;62211;42.986;23.256;2023-01-13T14:34:41;17.13;;;8.85;;
73879;SDS011;62211;42.986;23.256;2023-01-13T14:39:59;14.02;;;7.78;;
73879;SDS011;62211;42.986;23.256;2023-01-13T14:42:24;15.27;;;7.07;;
73879;SDS011;62211;42.986;23.256;2023-01-13T14:44:52;18.48;;;9.35;;
73879;SDS011;62211;42.986;23.256;2023-01-13T14:52:49;18.08;;;9.68;;
73879;SDS011;62211;42.986;23.256;2023-01-13T14:57:50;14.07;;;7.47;;
73879;SDS011;62211;42.986;23.256;2023-01-13T15:00:20;15.57;;;8.23;;
73879;SDS011;62211;42.986;23.256;2023-01-13T15:05:27;20.90;;;10.88;;
73879;SDS011;62211;42.986;23.256;2023-01-13T15:07:55;56.38;;;24.63;;
73879;SDS011;62211;42.986;23.256;2023-01-13T15:10:35;29.45;;;15.05;;
73879;SDS011;62211;42.986;23.256;2023-01-13T15:13:03;12.88;;;7.20;;
73879;SDS011;62211;42.986;23.256;2023-01-13T15:15:34;14.02;;;7.57;;
73879;SDS011;62211;42.986;23.256;2023-01-13T15:18:01;11.73;;;6.43;;
73879;SDS011;62211;42.986;23.256;2023-01-13T15:20:32;20.58;;;10.15;;
73879;SDS011;62211;42.986;23.256;2023-01-13T15:22:57;26.95;;;13.07;;
73879;SDS011;62211;42.986;23.256;2023-01-13T15:25:24;12.55;;;6.95;;
73879;SDS011;62211;42.986;23.256;2023-01-13T15:27:56;10.43;;;7.15;;
73879;SDS011;62211;42.986;23.256;2023-01-13T15:30:24;19.58;;;11.57;;
73879;SDS011;62211;42.986;23.256;2023-01-13T15:32:50;15.75;;;9.65;;
73879;SDS011;62211;42.986;23.256;2023-01-13T15:35:16;65.85;;;26.08;;
73879;SDS011;62211;42.986;23.256;2023-01-13T15:37:43;27.23;;;12.63;;
73879;SDS011;62211;42.986;23.256;2023-01-13T15:40:30;11.50;;;6.90;;
73879;SDS011;62211;42.986;23.256;2023-01-13T15:42:55;15.00;;;8.90;;
73879;SDS011;62211;42.986;23.256;2023-01-13T15:45:39;12.43;;;7.45;;
73879;SDS011;62211;42.986;23.256;2023-01-13T15:48:24;22.73;;;13.38;;
73879;SDS011;62211;42.986;23.256;2023-01-13T15:50:52;9.93;;;5.93;;
73879;SDS011;62211;42.986;23.256;2023-01-13T15:53:17;12.27;;;6.78;;
73879;SDS011;62211;42.986;23.256;2023-01-13T15:55:44;11.10;;;6.40;;
73879;SDS011;62211;42.986;23.256;2023-01-13T15:58:11;11.35;;;5.57;;
73879;SDS011;62211;42.986;23.256;2023-01-13T16:00:37;16.40;;;9.60;;
73879;SDS011;62211;42.986;23.256;2023-01-13T16:03:02;17.45;;;9.93;;
73879;SDS011;62211;42.986;23.256;2023-01-13T16:05:28;23.42;;;11.43;;
73879;SDS011;62211;42.986;23.256;2023-01-13T16:07:53;26.00;;;11.98;;
73879;SDS011;62211;42.986;23.256;2023-01-13T16:10:23;22.35;;;9.55;;
73879;SDS011;62211;42.986;23.256;2023-01-13T16:12:50;19.33;;;10.27;;
73879;SDS011;62211;42.986;23.256;2023-01-13T16:15:16;34.65;;;15.82;;
73879;SDS011;62211;42.986;23.256;2023-01-13T16:17:42;32.72;;;14.82;;
73879;SDS011;62211;42.986;23.256;2023-01-13T16:20:14;37.47;;;16.58;;
73879;SDS011;62211;42.986;23.256;2023-01-13T16:22:40;22.13;;;11.35;;
73879;SDS011;62211;42.986;23.256;2023-01-13T16:25:06;16.33;;;9.73;;
73879;SDS011;62211;42.986;23.256;2023-01-13T16:27:33;55.42;;;23.02;;
73879;SDS011;62211;42.986;23.256;2023-01-13T16:29:58;31.92;;;15.70;;
73879;SDS011;62211;42.986;23.256;2023-01-13T16:32:24;12.57;;;7.47;;
73879;SDS011;62211;42.986;23.256;2023-01-13T16:34:49;52.72;;;21.45;;
73879;SDS011;62211;42.986;23.256;2023-01-13T16:37:22;23.88;;;10.77;;
73879;SDS011;62211;42.986;23.256;2023-01-13T16:39:50;35.42;;;14.80;;
73879;SDS011;62211;42.986;23.256;2023-01-13T16:42:16;33.10;;;16.73;;
73879;SDS011;62211;42.986;23.256;2023-01-13T16:44:41;40.45;;;18.63;;
73879;SDS011;62211;42.986;23.256;2023-01-13T16:47:14;50.17;;;21.25;;
73879;SDS011;62211;42.986;23.256;2023-01-13T16:49:41;57.90;;;26.02;;
73879;SDS011;62211;42.986;23.256;2023-01-13T16:52:06;34.90;;;18.48;;
73879;SDS011;62211;42.986;23.256;2023-01-13T16:54:32;45.72;;;27.13;;
73879;SDS011;62211;42.986;23.256;2023-01-13T16:56:57;45.45;;;24.55;;
73879;SDS011;62211;42.986;23.256;2023-01-13T16:59:23;58.25;;;25.45;;
73879;SDS011;62211;42.986;23.256;2023-01-13T17:01:48;54.28;;;25.80;;
73879;SDS011;62211;42.986;23.256;2023-01-13T17:04:18;38.83;;;19.73;;
73879;SDS011;62211;42.986;23.256;2023-01-13T17:09:27;22.75;;;12.48;;
73879;SDS011;62211;42.986;23.256;2023-01-13T17:11:53;63.47;;;27.27;;